Terminal Aerodrome Forecast
Issued by NWS Rapid City, SD

Home | Current Version | Previous Version | Text Only | Print | Product List | Glossary On
Versions: 1 2 3 4 5 6 7 8 9 10 11 12 13 14 15 16 17 18 19 20
000
FTUS43 KUNR 251400 AAA
TAFRAP
TAF AMD
KRAP 251407Z 2514/2612 35025G35KT 2SM -SN BLSN SCT007 OVC011
     FM251900 36030G40KT 5SM -SHSN BLSN OVC015
     FM260100 35018G28KT P6SM OVC025
     FM260500 35011KT P6SM OVC050=

USA.gov is the U.S. government's official web portal to all federal, state and local government web resources and services.